Local Weather Ingen bokad jour idag Thursday 20th of June
Flygplats METAR TAF
Airport METAR TAF
ESSL - Linköping201120Z 26005KT 220V280 9999 SCT055TCU ///// Q1004= 201130Z 2012/2021 16008KT 9999 SCT040CB TEMPO 2012/2016 VRB18G28KT 3000 SHRA BKN015 SCT040CB PROB40 2012/2016 1500 TSGR BKN008 SCT040CB=
ESSP - Norrköping201120Z 12011KT 9999 TS BKN051CB BKN078 26/18 Q1004= 201130Z 2012/2021 15009KT 9999 FEW040 TEMPO 2012/2015 TSRA BKN045CB=
ESGJ - Jönköping201120Z 19007KT 150V230 CAVOK 23/15 Q1006= 201130Z 2012/2021 21008KT CAVOK PROB40 2012/2016 SHRA BKN050CB=
ESKN - Skavsta201120Z 15013KT 9999 FEW045CB 24/17 Q1005= 201130Z 2012/2112 15012KT CAVOK TEMPO 2012/2021 VRB15G25KT 4000 TSRA BKN045CB BECMG 2016/2018 VRB03KT PROB40 2023/2104 1400 BR=
ESSV - Visby201120Z 16014KT CAVOK 27/17 Q1007= 201130Z 2012/2021 17010KT CAVOK TEMPO 2012/2018 21015G25KT TSRA BKN060CB=
ESGG - Göteborg201120Z 23010KT 9999 SCT021 19/14 Q1006= 201130Z 2012/2112 21010KT CAVOK TEMPO 2012/2016 SHRA BKN040CB BECMG 2015/2017 27008KT PROB40 2021/2106 BKN012=
FLEET STATUS
Flygplan Tid till service Tid till flygstopp Flygtid Landningar
Aircraft Time to service Time to stop Total time Landings
SE-IUD0.0 h10.0 h11 600.0 h23 253 st.
SE-KIT-10.1 h-0.1 h11 810.1 h22 679 st.
SE-KMH9.5 h14.5 h15 940.5 h59 663 st.
SE-LRL41.8 h46.8 h658.2 h1 187 st.
SE-MEB-4.9 h5.1 h1 404.9 h4 241 st.
SE-SIMN/AN/A1 192.2 h85 st.
PPR
Ankomst Avgång Flygplan Namn Bränsle
Arrival Departure Aircraft Name Fuel
NOTAM
>>> ESSL/LINKOPING/SAAB <<<
CONTINUES ON NEXT PAGE ISSUED: 20 JUN 2019 11:25 UTC PAGE: 5(11) + TRIGGER NOTAM - PERM AIRAC AIP AMDT 4/19 WEF 20 JUN 2019. MAG VAR, CHANNEL WITHDRAWN, MINIMUM RVR FOR DEPARTING TRAFFIC. FROM: 20 JUN 2019 00:00 TO: 03 JUL 2019 23:59 ES/B1440/19 - AERODROME CONTROL TOWER (TWR) HOURS OF SERVICE ARE NOW MON-THU 0345-2115, FRI 0345-0445 0900-1015 1330-1445 2015-2115, SAT 0345-0445 1500-1630 2015-2115, SUN 0345-0445 1415-1530 2015-2115 FROM: 17 JUN 2019 00:00 TO: 23 JUN 2019 23:59 ES/B1384/19 - ATTENTION UNMANNED AIRCRAFT. ADDITION TO REGULATION TSFS 2017 110. THE LIMITATIONS IN REGULATION TSFS 2017 110 CHAPTER 3 PARAGRPH 3 APPLIES EVEN THOUGH THE AIRPORT IS CLOSED AND SAAB AND MALMEN CTR ARE NOT ESTABLISHED. FROM: 24 APR 2019 06:42 TO: 23 JUL 2019 07:00 EST ES/B1179/19
>>> ESCF/LINKOPING/MALMEN <<<